Time;durP1;ratioP1;P1;durP2;ratioP2;P2;SDS_P1;SDS_P2;PMS_P1;PMS_P2;Temp;Humidity;BMP_temperature;BMP_pressure;BME280_temperature;BME280_humidity;BME280_pressure;Samples;Min_cycle;Max_cycle;Signal;HPM_P1;HPM_P2
2022/05/11 00:01:55;;;;;;;0.40;0.20;;;15.80;99.90;;;;;;5086079;28;20813;-70
2022/05/11 00:04:20;;;;;;;0.40;0.35;;;15.70;99.90;;;;;;5074799;28;20890;-69
2022/05/11 00:06:46;;;;;;;1.10;1.10;;;15.70;99.90;;;;;;5089864;28;20501;-70
2022/05/11 00:09:13;;;;;;;0.40;0.20;;;15.70;99.90;;;;;;5090584;28;20417;-70
2022/05/11 00:11:40;;;;;;;0.40;0.20;;;15.70;99.90;;;;;;5086901;28;20402;-69
2022/05/11 00:14:06;;;;;;;0.40;0.30;;;15.70;99.90;;;;;;5070702;28;20417;-69
2022/05/11 00:16:33;;;;;;;0.40;0.20;;;15.60;99.90;;;;;;5090430;28;20401;-70
2022/05/11 00:18:59;;;;;;;0.60;0.60;;;15.60;99.90;;;;;;5088603;28;20404;-70
2022/05/11 00:21:25;;;;;;;0.40;0.40;;;15.60;99.90;;;;;;5089181;28;20386;-69
2022/05/11 00:23:52;;;;;;;0.40;0.30;;;15.60;99.90;;;;;;5089934;28;20390;-70
2022/05/11 00:26:18;;;;;;;0.40;0.38;;;15.60;99.90;;;;;;5090539;28;20491;-69
2022/05/11 00:28:43;;;;;;;0.50;0.50;;;15.50;99.90;;;;;;5090846;28;20909;-70
2022/05/11 00:31:09;;;;;;;0.60;0.60;;;15.60;99.90;;;;;;5089143;28;20394;-69
2022/05/11 00:33:35;;;;;;;0.40;0.20;;;15.60;99.90;;;;;;5090314;28;20393;-70
2022/05/11 00:36:01;;;;;;;0.40;0.30;;;15.60;99.90;;;;;;5083505;28;20534;-69
2022/05/11 00:38:28;;;;;;;0.40;0.20;;;15.60;99.90;;;;;;5090442;28;20917;-69
2022/05/11 00:40:59;;;;;;;0.40;0.30;;;15.50;99.90;;;;;;5089624;28;20386;-69
2022/05/11 00:43:32;;;;;;;0.80;0.80;;;15.60;99.90;;;;;;5090278;28;20418;-70
2022/05/11 00:46:13;;;;;;;0.40;0.20;;;15.50;99.90;;;;;;5089107;28;21020;-70
2022/05/11 00:51:34;;;;;;;0.40;0.20;;;15.50;99.90;;;;;;5051602;28;20885;-69
2022/05/11 00:54:03;;;;;;;0.40;0.40;;;15.50;99.90;;;;;;5069818;28;20967;-70
2022/05/11 00:56:29;;;;;;;0.40;0.30;;;15.40;99.90;;;;;;5078812;28;20425;-69
2022/05/11 00:59:06;;;;;;;0.40;0.20;;;15.30;99.90;;;;;;5089352;28;20382;-69
2022/05/11 01:01:32;;;;;;;0.68;0.52;;;15.40;99.90;;;;;;5090412;28;20439;-69
2022/05/11 01:04:18;;;;;;;0.60;0.50;;;15.30;99.90;;;;;;5089363;28;20469;-70
2022/05/11 01:06:43;;;;;;;0.40;0.30;;;15.20;99.90;;;;;;5090137;28;20417;-69
2022/05/11 01:09:10;;;;;;;0.40;0.30;;;15.20;99.90;;;;;;5092080;28;20549;-70
2022/05/11 01:11:45;;;;;;;0.40;0.30;;;15.20;99.90;;;;;;5094210;28;20424;-69
2022/05/11 01:14:14;;;;;;;1.20;1.10;;;15.10;99.90;;;;;;5093238;28;21047;-69
2022/05/11 01:16:41;;;;;;;0.40;0.30;;;15.10;99.90;;;;;;5093629;28;20386;-69
2022/05/11 01:19:12;;;;;;;0.40;0.20;;;15.10;99.90;;;;;;5075295;28;20378;-69
2022/05/11 01:21:49;;;;;;;0.40;0.20;;;15.00;99.90;;;;;;5093021;28;21088;-70
2022/05/11 01:24:37;;;;;;;0.70;0.70;;;15.10;99.90;;;;;;5092899;28;20427;-69
2022/05/11 01:27:42;;;;;;;0.40;0.30;;;15.00;99.90;;;;;;5088450;28;20406;-70
2022/05/11 01:30:13;;;;;;;0.40;0.30;;;14.90;99.90;;;;;;4991656;28;20845;-69
2022/05/11 01:32:43;;;;;;;0.40;0.40;;;15.00;99.90;;;;;;5008900;28;20454;-69
2022/05/11 01:35:12;;;;;;;0.40;0.40;;;14.90;99.90;;;;;;5052089;28;20426;-69
2022/05/11 01:37:50;;;;;;;0.60;0.60;;;14.90;99.90;;;;;;5093467;28;20381;-69
2022/05/11 01:40:16;;;;;;;0.40;0.35;;;14.80;99.90;;;;;;5091089;28;20394;-70
2022/05/11 01:42:42;;;;;;;0.80;0.50;;;14.80;99.90;;;;;;5090103;28;20422;-69
2022/05/11 01:45:08;;;;;;;0.40;0.20;;;14.90;99.90;;;;;;5092147;28;20393;-69
2022/05/11 01:47:33;;;;;;;0.40;0.20;;;14.90;99.90;;;;;;5093258;28;20414;-69
2022/05/11 01:49:59;;;;;;;0.40;0.20;;;14.80;99.90;;;;;;5090640;28;20405;-70
2022/05/11 01:52:24;;;;;;;0.40;0.20;;;14.80;99.90;;;;;;5073154;28;20372;-69
2022/05/11 01:54:50;;;;;;;0.40;0.20;;;14.80;99.90;;;;;;5090927;28;20388;-70
2022/05/11 01:57:16;;;;;;;0.50;0.50;;;14.80;99.90;;;;;;5091739;28;20758;-69
2022/05/11 01:59:41;;;;;;;0.60;0.60;;;14.80;99.90;;;;;;5090491;28;20908;-69
2022/05/11 02:02:07;;;;;;;0.60;0.50;;;14.70;99.90;;;;;;5092601;28;20461;-69
2022/05/11 02:10:01;;;;;;;0.40;0.20;;;14.60;99.90;;;;;;5087596;28;20389;-70
2022/05/11 02:12:26;;;;;;;0.40;0.40;;;14.60;99.90;;;;;;5092597;28;20778;-70
2022/05/11 02:14:52;;;;;;;0.40;0.20;;;14.60;99.90;;;;;;5092198;28;20390;-69
2022/05/11 02:17:20;;;;;;;0.40;0.20;;;14.60;99.90;;;;;;5091325;28;20394;-69
2022/05/11 02:19:45;;;;;;;0.40;0.20;;;14.60;99.90;;;;;;5073278;28;20394;-69
2022/05/11 02:22:11;;;;;;;0.50;0.50;;;14.50;99.90;;;;;;5090804;28;20378;-69
2022/05/11 02:24:37;;;;;;;0.40;0.20;;;14.50;99.90;;;;;;5092633;28;20480;-69
2022/05/11 02:27:04;;;;;;;0.50;0.40;;;14.50;99.90;;;;;;5091794;28;20401;-69
2022/05/11 02:29:30;;;;;;;0.40;0.20;;;14.40;99.90;;;;;;5092526;28;20444;-69
2022/05/11 02:31:55;;;;;;;0.90;0.90;;;14.30;99.90;;;;;;5092033;28;20386;-69
2022/05/11 02:37:06;;;;;;;2.00;0.90;;;14.30;99.90;;;;;;5090589;28;20401;-69
2022/05/11 02:39:31;;;;;;;0.40;0.20;;;14.30;99.90;;;;;;5092028;28;20387;-69
2022/05/11 02:41:57;;;;;;;0.80;0.50;;;14.30;99.90;;;;;;5091520;28;20385;-69
2022/05/11 02:44:22;;;;;;;0.70;0.70;;;14.30;99.90;;;;;;5091155;28;20493;-69
2022/05/11 02:46:49;;;;;;;0.40;0.30;;;14.30;99.90;;;;;;5092338;28;20463;-69
2022/05/11 02:49:15;;;;;;;1.50;0.70;;;14.30;99.90;;;;;;5089803;28;20398;-69
2022/05/11 02:51:40;;;;;;;0.40;0.20;;;14.20;99.90;;;;;;5092497;28;20374;-69
2022/05/11 02:54:06;;;;;;;0.40;0.30;;;14.20;99.90;;;;;;5091092;28;20806;-70
2022/05/11 02:56:31;;;;;;;0.40;0.30;;;14.10;99.90;;;;;;5092391;28;20390;-69
2022/05/11 02:58:57;;;;;;;0.40;0.20;;;14.10;99.90;;;;;;5091339;28;20397;-70
2022/05/11 03:01:23;;;;;;;0.40;0.20;;;14.20;99.90;;;;;;5092097;28;20474;-69
2022/05/11 03:03:48;;;;;;;0.40;0.20;;;14.10;99.90;;;;;;5091650;28;20931;-68
2022/05/11 03:06:14;;;;;;;0.40;0.20;;;14.10;99.90;;;;;;5085594;28;20908;-69
2022/05/11 03:08:40;;;;;;;0.40;0.33;;;14.00;99.90;;;;;;5091696;28;20394;-69
2022/05/11 03:11:06;;;;;;;0.40;0.30;;;13.90;99.90;;;;;;5091297;28;20432;-69
2022/05/11 03:13:32;;;;;;;0.40;0.20;;;13.90;99.90;;;;;;5091074;28;20555;-69
2022/05/11 03:15:57;;;;;;;0.40;0.30;;;13.90;99.90;;;;;;5091320;28;20469;-69
2022/05/11 03:18:23;;;;;;;0.40;0.30;;;13.80;99.90;;;;;;5072685;28;20447;-69
2022/05/11 03:20:49;;;;;;;0.40;0.20;;;13.80;99.90;;;;;;5091313;28;20539;-68
2022/05/11 03:23:15;;;;;;;0.40;0.30;;;13.90;99.90;;;;;;5085153;28;20397;-69
2022/05/11 03:25:41;;;;;;;0.50;0.50;;;13.90;99.90;;;;;;5091338;28;20448;-69
2022/05/11 03:28:06;;;;;;;0.40;0.20;;;14.00;99.90;;;;;;5072061;28;20405;-69
2022/05/11 03:30:32;;;;;;;0.50;0.50;;;13.90;99.90;;;;;;5091002;28;20425;-68
2022/05/11 03:35:43;;;;;;;0.90;0.60;;;14.00;99.90;;;;;;5090883;28;20555;-69
2022/05/11 03:38:09;;;;;;;0.40;0.20;;;13.90;99.90;;;;;;5090382;28;20393;-69
2022/05/11 03:40:37;;;;;;;0.40;0.20;;;13.80;99.90;;;;;;5079566;28;20879;-68
2022/05/11 03:43:03;;;;;;;0.40;0.20;;;13.90;99.90;;;;;;5085924;28;20508;-69
2022/05/11 03:45:29;;;;;;;0.40;0.30;;;13.80;99.90;;;;;;5090834;28;20386;-69
2022/05/11 03:47:55;;;;;;;0.40;0.30;;;13.80;99.90;;;;;;5090678;28;20732;-69
2022/05/11 03:50:24;;;;;;;0.40;0.40;;;13.80;99.90;;;;;;5089656;28;20394;-69
2022/05/11 03:52:52;;;;;;;0.60;0.60;;;13.80;99.90;;;;;;5090991;28;20447;-68
2022/05/11 03:55:19;;;;;;;0.40;0.20;;;13.80;99.90;;;;;;5089973;28;21446;-70
2022/05/11 03:57:45;;;;;;;0.40;0.35;;;13.80;99.90;;;;;;5089874;28;20394;-69
2022/05/11 04:00:23;;;;;;;0.40;0.40;;;13.70;99.90;;;;;;5089816;28;20747;-69
2022/05/11 04:02:53;;;;;;;0.40;0.30;;;13.70;99.90;;;;;;5090547;28;20394;-69
2022/05/11 04:05:20;;;;;;;0.60;0.60;;;13.70;99.90;;;;;;5057516;28;20988;-69
2022/05/11 04:07:46;;;;;;;0.50;0.50;;;13.80;99.90;;;;;;5075056;28;20401;-69
2022/05/11 04:10:14;;;;;;;0.40;0.20;;;13.60;99.90;;;;;;5090040;28;20439;-69
2022/05/11 04:12:40;;;;;;;1.10;1.00;;;13.70;99.90;;;;;;5090490;28;20497;-69
2022/05/11 04:15:06;;;;;;;0.40;0.30;;;13.60;99.90;;;;;;5089278;28;20828;-69
2022/05/11 04:17:32;;;;;;;0.40;0.20;;;13.70;99.90;;;;;;5073031;28;20439;-69
2022/05/11 04:19:58;;;;;;;0.40;0.20;;;13.70;99.90;;;;;;5090641;28;20837;-68
2022/05/11 04:22:24;;;;;;;0.40;0.20;;;13.70;99.90;;;;;;5080300;28;20396;-69
2022/05/11 04:24:50;;;;;;;0.90;0.90;;;13.70;99.90;;;;;;5078716;28;20452;-68
2022/05/11 04:27:15;;;;;;;0.40;0.20;;;13.80;99.90;;;;;;5074958;28;20414;-69
2022/05/11 04:29:41;;;;;;;0.40;0.20;;;13.70;99.90;;;;;;5089295;28;20390;-69
2022/05/11 04:32:08;;;;;;;0.40;0.30;;;13.80;99.90;;;;;;5082595;28;20393;-69
2022/05/11 04:34:34;;;;;;;0.60;0.50;;;13.80;99.90;;;;;;5077091;28;20493;-69
2022/05/11 04:37:00;;;;;;;0.40;0.20;;;13.90;99.90;;;;;;5089738;28;20397;-68
2022/05/11 04:39:26;;;;;;;0.40;0.30;;;13.80;99.90;;;;;;5089112;28;20393;-69
2022/05/11 04:41:51;;;;;;;0.60;0.60;;;13.90;99.90;;;;;;5090650;28;20374;-69
2022/05/11 04:44:17;;;;;;;0.40;0.20;;;13.90;99.90;;;;;;5086242;28;20547;-69
2022/05/11 04:46:43;;;;;;;0.50;0.50;;;13.90;99.90;;;;;;5086040;28;20401;-69
2022/05/11 04:49:19;;;;;;;0.40;0.40;;;14.00;99.90;;;;;;5092824;28;20405;-69
2022/05/11 04:51:51;;;;;;;0.40;0.20;;;14.00;99.90;;;;;;5087562;28;20556;-69
2022/05/11 04:54:17;;;;;;;0.40;0.20;;;14.10;99.90;;;;;;5092880;28;20393;-69
2022/05/11 04:56:43;;;;;;;0.40;0.20;;;14.10;99.90;;;;;;5094064;28;20398;-68
2022/05/11 04:59:09;;;;;;;0.40;0.20;;;14.20;99.90;;;;;;5075572;28;20397;-69
2022/05/11 05:01:36;;;;;;;0.40;0.20;;;14.20;99.90;;;;;;5094321;28;20738;-69
2022/05/11 05:04:01;;;;;;;0.60;0.60;;;14.20;99.90;;;;;;5094084;28;20835;-68
2022/05/11 05:06:32;;;;;;;2.00;1.07;;;14.30;99.90;;;;;;5091944;28;20529;-69
2022/05/11 05:08:58;;;;;;;0.40;0.30;;;14.40;99.90;;;;;;5093172;28;20526;-69
2022/05/11 05:11:23;;;;;;;0.40;0.30;;;14.40;99.90;;;;;;5091968;28;20394;-69
2022/05/11 05:13:50;;;;;;;0.40;0.30;;;14.40;99.90;;;;;;5074179;28;20410;-69
2022/05/11 05:16:16;;;;;;;0.50;0.50;;;14.50;99.90;;;;;;5092636;28;20397;-69
2022/05/11 05:18:41;;;;;;;0.40;0.30;;;14.60;99.90;;;;;;5093992;28;20416;-69
2022/05/11 05:21:07;;;;;;;0.57;0.57;;;14.60;99.90;;;;;;5093127;28;20378;-70
2022/05/11 05:23:34;;;;;;;0.40;0.20;;;14.60;99.90;;;;;;5093074;28;20398;-69
2022/05/11 05:26:01;;;;;;;0.40;0.30;;;14.70;99.90;;;;;;5092268;28;20386;-69
2022/05/11 05:31:18;;;;;;;0.45;0.43;;;14.70;99.90;;;;;;5091562;28;20478;-69
2022/05/11 05:33:44;;;;;;;0.40;0.30;;;14.70;99.90;;;;;;5093402;28;20384;-68
2022/05/11 05:36:10;;;;;;;0.60;0.60;;;14.80;99.90;;;;;;5092557;28;20809;-68
2022/05/11 05:38:38;;;;;;;0.50;0.50;;;15.00;99.90;;;;;;5093497;28;20390;-68
2022/05/11 05:41:09;;;;;;;0.50;0.50;;;15.10;99.90;;;;;;5093358;28;20447;-68
2022/05/11 05:43:37;;;;;;;0.40;0.30;;;15.10;99.90;;;;;;5092327;28;20414;-68
2022/05/11 05:46:02;;;;;;;0.40;0.20;;;15.00;99.90;;;;;;5092814;28;20442;-68
2022/05/11 05:48:28;;;;;;;0.40;0.30;;;15.30;99.90;;;;;;5091876;28;20400;-69
2022/05/11 05:51:02;;;;;;;0.40;0.20;;;15.20;99.90;;;;;;5087974;28;20733;-69
2022/05/11 05:53:28;;;;;;;0.40;0.20;;;15.40;99.90;;;;;;5092369;28;20442;-69
2022/05/11 05:55:54;;;;;;;0.50;0.50;;;15.70;99.90;;;;;;5074565;28;20386;-69
2022/05/11 05:58:19;;;;;;;0.40;0.20;;;15.60;99.90;;;;;;5091697;28;20420;-69
2022/05/11 06:00:45;;;;;;;0.40;0.20;;;15.70;99.90;;;;;;5072540;28;20402;-70
2022/05/11 06:03:17;;;;;;;0.40;0.20;;;15.70;99.90;;;;;;5090241;28;20390;-70
2022/05/11 06:05:42;;;;;;;0.70;0.60;;;16.00;99.90;;;;;;5091597;28;20473;-70
2022/05/11 06:08:08;;;;;;;0.60;0.60;;;16.00;99.90;;;;;;5090482;28;20900;-70
2022/05/11 06:10:39;;;;;;;0.40;0.20;;;16.00;99.90;;;;;;5091870;28;20386;-70
2022/05/11 06:13:05;;;;;;;0.70;0.60;;;16.20;99.90;;;;;;5083896;28;20455;-70
2022/05/11 06:15:32;;;;;;;0.40;0.40;;;16.50;99.90;;;;;;5077616;28;20402;-70
2022/05/11 06:17:57;;;;;;;0.40;0.20;;;16.40;99.90;;;;;;5078259;28;20390;-70
2022/05/11 06:20:23;;;;;;;0.40;0.20;;;16.70;99.90;;;;;;5091764;28;20850;-71
2022/05/11 06:22:50;;;;;;;0.63;0.63;;;16.70;99.90;;;;;;5074379;28;20394;-70
2022/05/11 06:25:18;;;;;;;1.50;1.30;;;16.70;99.90;;;;;;5088481;28;20474;-70
2022/05/11 06:27:44;;;;;;;0.60;0.50;;;16.80;99.90;;;;;;5092727;28;20410;-70
2022/05/11 06:30:11;;;;;;;0.40;0.20;;;16.80;99.90;;;;;;5091735;28;20386;-71
2022/05/11 06:32:36;;;;;;;0.40;0.20;;;16.90;99.90;;;;;;5092407;28;20505;-71
2022/05/11 06:35:03;;;;;;;0.40;0.37;;;16.90;99.90;;;;;;5092736;28;20874;-72
2022/05/11 06:37:29;;;;;;;0.70;0.70;;;17.00;99.90;;;;;;5085654;28;20397;-70
2022/05/11 06:39:55;;;;;;;0.40;0.30;;;17.20;99.90;;;;;;5081443;28;20396;-71
2022/05/11 06:42:21;;;;;;;0.40;0.20;;;17.20;99.90;;;;;;5085382;28;20425;-69
2022/05/11 06:44:47;;;;;;;0.40;0.40;;;17.30;99.90;;;;;;5085015;28;20714;-70
2022/05/11 06:47:13;;;;;;;0.40;0.20;;;17.40;99.90;;;;;;5087426;28;20715;-70
2022/05/11 06:49:39;;;;;;;0.60;0.60;;;17.40;99.90;;;;;;5091478;28;20401;-70
2022/05/11 06:52:05;;;;;;;0.55;0.43;;;17.60;99.90;;;;;;5092302;28;20765;-70
2022/05/11 06:59:59;;;;;;;0.50;0.40;;;17.90;99.90;;;;;;5091497;28;20913;-70
2022/05/11 07:02:25;;;;;;;0.50;0.50;;;18.10;99.90;;;;;;5090140;28;20386;-70
2022/05/11 07:04:51;;;;;;;0.40;0.40;;;18.20;99.90;;;;;;5091119;28;20855;-71
2022/05/11 07:07:18;;;;;;;0.65;0.47;;;18.30;99.90;;;;;;5088259;28;20508;-71
2022/05/11 07:09:44;;;;;;;0.40;0.40;;;18.40;99.90;;;;;;5078357;28;20398;-71
2022/05/11 07:12:21;;;;;;;0.40;0.30;;;18.40;99.90;;;;;;5091649;28;20382;-70
2022/05/11 07:14:57;;;;;;;0.40;0.20;;;18.60;99.90;;;;;;5082868;28;20402;-70
2022/05/11 07:17:38;;;;;;;0.50;0.50;;;18.80;99.90;;;;;;5082529;28;20441;-70
2022/05/11 07:20:11;;;;;;;0.45;0.22;;;18.80;99.90;;;;;;5091615;28;20408;-70
2022/05/11 07:22:38;;;;;;;0.40;0.30;;;18.90;99.90;;;;;;5086301;28;20403;-70
2022/05/11 07:25:09;;;;;;;0.40;0.30;;;19.00;99.90;;;;;;5076091;28;20390;-70
2022/05/11 07:27:35;;;;;;;0.50;0.40;;;19.20;99.90;;;;;;5089661;28;20410;-70
2022/05/11 07:30:03;;;;;;;0.70;0.70;;;19.30;99.90;;;;;;5090832;28;20393;-70
2022/05/11 07:32:28;;;;;;;0.40;0.20;;;19.50;99.90;;;;;;5086881;28;20931;-70
2022/05/11 07:34:54;;;;;;;0.40;0.40;;;19.50;99.90;;;;;;5091201;28;20397;-70
2022/05/11 07:37:20;;;;;;;0.50;0.40;;;19.70;99.90;;;;;;5089385;28;20865;-71
2022/05/11 07:39:46;;;;;;;0.40;0.20;;;20.00;99.90;;;;;;5090499;28;20425;-71
2022/05/11 07:42:12;;;;;;;2.00;0.95;;;20.10;99.90;;;;;;5090479;28;20784;-70
2022/05/11 07:44:38;;;;;;;2.95;2.72;;;20.30;99.90;;;;;;5110622;28;20392;-70
2022/05/11 07:47:03;;;;;;;0.40;0.30;;;20.60;99.90;;;;;;5111057;28;20908;-69
2022/05/11 07:49:29;;;;;;;0.40;0.40;;;20.90;99.90;;;;;;5110642;28;20840;-69
2022/05/11 07:51:55;;;;;;;0.40;0.30;;;21.20;99.90;;;;;;5109652;28;20384;-70
2022/05/11 07:54:21;;;;;;;0.40;0.40;;;21.50;99.90;;;;;;5110713;28;20468;-70
2022/05/11 08:02:16;;;;;;;0.40;0.30;;;22.50;92.20;;;;;;5110898;28;20800;-69
2022/05/11 08:04:42;;;;;;;0.47;0.40;;;22.60;90.90;;;;;;5093286;28;20392;-69
2022/05/11 08:07:09;;;;;;;0.40;0.30;;;22.70;90.00;;;;;;5111675;28;20408;-70
2022/05/11 08:09:35;;;;;;;0.70;0.70;;;22.80;90.70;;;;;;5103377;28;20397;-69
2022/05/11 08:12:01;;;;;;;0.40;0.30;;;22.80;88.50;;;;;;5091016;28;20405;-68
2022/05/11 08:14:27;;;;;;;3.38;0.93;;;22.90;86.90;;;;;;5090231;28;20370;-67
2022/05/11 08:16:53;;;;;;;2.67;1.95;;;23.20;83.70;;;;;;5098814;28;20458;-69
2022/05/11 08:19:24;;;;;;;0.40;0.20;;;23.30;82.90;;;;;;5089833;28;20390;-70
2022/05/11 08:21:51;;;;;;;0.40;0.30;;;23.40;83.80;;;;;;5091307;28;20379;-69
2022/05/11 08:24:17;;;;;;;0.70;0.60;;;23.40;80.00;;;;;;5090075;28;20940;-69
2022/05/11 08:26:46;;;;;;;0.90;0.60;;;23.50;79.20;;;;;;5090433;28;20402;-70
2022/05/11 08:33:19;;;;;;;0.40;0.25;;;23.60;78.50;;;;;;5090732;28;20390;-71
2022/05/11 08:34:44;;;;;;;0.40;0.30;;;23.80;76.10;;;;;;5111018;28;20380;-69
2022/05/11 08:37:10;;;;;;;0.40;0.30;;;23.80;77.10;;;;;;5109176;28;20422;-69
2022/05/11 08:39:36;;;;;;;0.65;0.65;;;23.70;77.20;;;;;;5108281;28;20991;-69
2022/05/11 08:42:03;;;;;;;0.90;0.70;;;23.80;76.70;;;;;;5108548;28;20798;-70
2022/05/11 08:44:34;;;;;;;0.60;0.60;;;23.90;75.30;;;;;;5086661;28;20442;-68
2022/05/11 08:47:32;;;;;;;0.40;0.40;;;23.90;75.30;;;;;;5086366;28;20451;-70
2022/05/11 08:50:09;;;;;;;0.50;0.40;;;23.90;75.50;;;;;;5090104;28;20391;-68
2022/05/11 08:52:50;;;;;;;0.50;0.50;;;23.90;75.60;;;;;;5086094;28;20866;-70
2022/05/11 08:55:30;;;;;;;0.40;0.30;;;23.90;73.40;;;;;;5089617;28;20447;-70
2022/05/11 08:57:57;;;;;;;0.50;0.50;;;24.00;74.20;;;;;;5090212;28;20387;-69
2022/05/11 09:00:23;;;;;;;0.40;0.30;;;24.00;72.40;;;;;;5070783;28;20481;-71
2022/05/11 09:03:11;;;;;;;0.40;0.30;;;24.00;73.80;;;;;;5089420;28;20481;-70
2022/05/11 09:05:38;;;;;;;0.40;0.28;;;24.10;73.80;;;;;;5088125;28;20996;-69
2022/05/11 09:08:05;;;;;;;0.40;0.30;;;24.00;73.50;;;;;;5088663;28;20398;-70
2022/05/11 09:10:34;;;;;;;0.40;0.30;;;24.20;73.70;;;;;;5087669;28;20389;-69
2022/05/11 09:13:04;;;;;;;5.70;3.77;;;24.20;72.00;;;;;;5089469;28;20451;-69
2022/05/11 09:15:51;;;;;;;0.40;0.20;;;24.20;72.70;;;;;;5087815;28;20439;-69
2022/05/11 09:18:17;;;;;;;0.40;0.20;;;24.40;71.10;;;;;;5087989;28;20458;-69
2022/05/11 09:20:47;;;;;;;0.40;0.40;;;24.30;72.20;;;;;;5089186;28;20374;-70
2022/05/11 09:23:13;;;;;;;0.63;0.63;;;24.30;73.10;;;;;;5089218;28;20409;-69
2022/05/11 09:25:56;;;;;;;0.60;0.50;;;24.30;69.70;;;;;;5088721;28;20382;-69
2022/05/11 09:28:27;;;;;;;0.40;0.20;;;24.30;70.50;;;;;;5089315;28;20439;-69
2022/05/11 09:31:01;;;;;;;0.40;0.20;;;24.40;70.60;;;;;;5093742;28;20385;-68
2022/05/11 09:33:33;;;;;;;0.40;0.22;;;24.50;70.90;;;;;;5087373;28;20484;-70
2022/05/11 09:36:03;;;;;;;0.40;0.20;;;24.60;70.00;;;;;;5091051;28;20933;-69
2022/05/11 09:38:31;;;;;;;0.40;0.30;;;24.70;70.50;;;;;;5092946;28;20401;-70
2022/05/11 09:41:00;;;;;;;0.40;0.30;;;24.70;70.00;;;;;;5093314;28;20864;-69
2022/05/11 09:43:54;;;;;;;0.40;0.20;;;24.80;69.70;;;;;;5101668;28;20776;-70
2022/05/11 09:46:29;;;;;;;0.40;0.28;;;24.90;69.00;;;;;;5113026;28;20405;-69
2022/05/11 09:49:26;;;;;;;0.40;0.30;;;24.90;68.50;;;;;;5110620;28;20404;-70
2022/05/11 09:51:58;;;;;;;0.50;0.50;;;24.90;69.00;;;;;;5093773;28;20400;-70
2022/05/11 09:54:48;;;;;;;0.40;0.30;;;25.00;69.40;;;;;;5111421;28;20748;-71
2022/05/11 09:57:28;;;;;;;1.70;1.60;;;25.10;68.30;;;;;;5097171;28;20396;-68
2022/05/11 10:00:26;;;;;;;0.45;0.38;;;25.20;68.30;;;;;;5112342;28;20384;-69
2022/05/11 10:02:57;;;;;;;0.40;0.20;;;25.20;67.10;;;;;;5108859;28;20377;-70
2022/05/11 10:05:36;;;;;;;0.40;0.20;;;25.30;63.90;;;;;;5112162;28;20496;-71
2022/05/11 10:08:01;;;;;;;0.40;0.40;;;25.20;64.90;;;;;;5084299;28;20408;-70
2022/05/11 10:10:56;;;;;;;0.40;0.20;;;25.20;66.50;;;;;;5112005;28;20445;-69
2022/05/11 10:13:32;;;;;;;0.40;0.30;;;25.20;66.10;;;;;;5073349;28;20408;-70
2022/05/11 10:22:01;;;;;;;0.50;0.40;;;25.50;65.90;;;;;;5112401;28;20376;-70
2022/05/11 10:24:54;;;;;;;0.80;0.60;;;25.50;65.40;;;;;;5112254;28;20737;-70
2022/05/11 10:27:41;;;;;;;0.60;0.60;;;25.60;66.00;;;;;;5112862;28;20963;-69
2022/05/11 10:30:08;;;;;;;0.40;0.30;;;25.70;64.90;;;;;;5113226;28;20384;-70
2022/05/11 10:32:59;;;;;;;0.40;0.30;;;25.70;66.00;;;;;;5111997;28;20867;-70
2022/05/11 10:35:46;;;;;;;0.40;0.25;;;25.70;66.50;;;;;;5094285;28;20484;-71
2022/05/11 10:38:18;;;;;;;0.50;0.40;;;25.80;65.30;;;;;;5092702;28;20440;-69
2022/05/11 10:40:55;;;;;;;0.40;0.30;;;25.90;66.50;;;;;;5090737;28;20515;-69
2022/05/11 10:43:49;;;;;;;0.40;0.30;;;26.00;65.50;;;;;;5082958;28;20418;-69
2022/05/11 10:46:33;;;;;;;0.40;0.40;;;26.10;69.00;;;;;;5072012;28;20383;-68
2022/05/11 10:49:09;;;;;;;1.00;0.90;;;26.00;66.50;;;;;;5072046;28;20388;-71
2022/05/11 10:51:45;;;;;;;1.13;0.60;;;26.10;69.00;;;;;;5080802;28;20397;-69
2022/05/11 10:54:25;;;;;;;0.40;0.30;;;26.10;68.60;;;;;;5092106;28;20390;-70
2022/05/11 10:57:14;;;;;;;0.40;0.35;;;26.10;69.90;;;;;;5092234;28;20394;-69
2022/05/11 11:00:06;;;;;;;0.40;0.30;;;26.20;67.70;;;;;;5091567;28;20389;-70
2022/05/11 11:02:47;;;;;;;0.45;0.38;;;26.10;67.10;;;;;;5091195;28;20861;-69
2022/05/11 11:05:34;;;;;;;0.40;0.30;;;26.40;68.60;;;;;;5090222;28;20394;-73
2022/05/11 11:08:30;;;;;;;1.00;1.00;;;26.60;65.90;;;;;;5090829;28;20889;-70
2022/05/11 11:11:22;;;;;;;0.40;0.25;;;26.80;66.20;;;;;;5084702;28;20808;-71
2022/05/11 11:14:00;;;;;;;0.55;0.55;;;26.90;66.20;;;;;;5088119;28;20406;-71
2022/05/11 11:16:38;;;;;;;0.40;0.40;;;27.10;68.00;;;;;;5088069;28;20395;-72
2022/05/11 11:19:05;;;;;;;0.40;0.30;;;27.30;67.30;;;;;;5088208;28;20385;-71
2022/05/11 11:21:31;;;;;;;0.40;0.40;;;27.40;65.20;;;;;;5089252;28;20902;-70
2022/05/11 11:24:11;;;;;;;0.70;0.70;;;27.10;65.50;;;;;;5089889;28;20400;-72
2022/05/11 11:26:54;;;;;;;0.40;0.40;;;27.10;66.90;;;;;;5089332;28;20390;-71
2022/05/11 11:29:31;;;;;;;0.40;0.30;;;27.60;66.70;;;;;;5089986;28;20402;-72
2022/05/11 11:32:00;;;;;;;0.80;0.60;;;27.70;65.10;;;;;;5087469;28;20739;-71
2022/05/11 11:34:31;;;;;;;0.70;0.60;;;28.00;62.80;;;;;;5089559;28;20382;-71
2022/05/11 11:36:57;;;;;;;0.40;0.30;;;28.60;62.60;;;;;;5087085;28;20455;-71
2022/05/11 11:39:56;;;;;;;0.65;0.50;;;29.30;62.00;;;;;;5071677;28;20390;-71
2022/05/11 11:42:44;;;;;;;1.20;0.70;;;30.00;59.40;;;;;;5087662;28;20460;-70
2022/05/11 11:45:24;;;;;;;0.52;0.50;;;30.30;56.80;;;;;;5088888;28;20423;-70
2022/05/11 11:48:03;;;;;;;0.40;0.30;;;30.00;57.70;;;;;;5088533;28;20493;-76
2022/05/11 11:50:53;;;;;;;0.40;0.20;;;30.20;57.10;;;;;;5090182;28;20393;-71
2022/05/11 11:53:30;;;;;;;0.40;0.20;;;30.70;55.50;;;;;;5085406;28;20445;-75
2022/05/11 11:56:25;;;;;;;0.52;0.47;;;30.80;55.10;;;;;;5088560;28;20390;-72
2022/05/11 11:59:30;;;;;;;0.40;0.20;;;30.60;53.30;;;;;;5090425;28;20382;-73
2022/05/11 12:02:04;;;;;;;0.70;0.70;;;30.40;55.70;;;;;;5081394;28;20452;-72
2022/05/11 12:04:32;;;;;;;0.40;0.25;;;30.60;54.70;;;;;;5090597;28;20478;-72
2022/05/11 12:15:31;;;;;;;0.40;0.20;;;31.20;52.30;;;;;;5085924;28;20786;-72
2022/05/11 12:17:58;;;;;;;0.40;0.30;;;31.10;53.50;;;;;;5089021;28;20447;-70
2022/05/11 12:20:25;;;;;;;0.50;0.40;;;31.50;51.60;;;;;;5089646;28;20401;-72
2022/05/11 12:22:55;;;;;;;0.40;0.20;;;30.80;52.50;;;;;;5089900;28;20905;-71
2022/05/11 12:25:31;;;;;;;0.40;0.30;;;31.00;53.10;;;;;;5090998;28;20447;-71
2022/05/11 12:28:01;;;;;;;0.40;0.20;;;31.00;52.60;;;;;;5091327;28;20870;-71
2022/05/11 12:30:30;;;;;;;0.40;0.20;;;30.70;50.80;;;;;;5090786;28;20443;-71
2022/05/11 12:33:04;;;;;;;0.40;0.30;;;30.80;51.60;;;;;;5090703;28;20928;-71
2022/05/11 12:35:34;;;;;;;0.80;0.80;;;31.00;52.00;;;;;;5090371;28;20464;-72
2022/05/11 12:38:05;;;;;;;0.40;0.20;;;30.40;53.10;;;;;;5090651;28;20394;-71
2022/05/11 12:40:43;;;;;;;0.55;0.45;;;30.70;53.50;;;;;;5090344;28;20382;-71
2022/05/11 12:43:26;;;;;;;0.40;0.30;;;30.60;52.60;;;;;;5098699;28;20412;-71
2022/05/11 12:45:56;;;;;;;0.40;0.20;;;30.30;53.70;;;;;;5107073;28;20445;-71
2022/05/11 12:48:33;;;;;;;0.50;0.40;;;30.00;53.50;;;;;;5106684;28;20499;-71
2022/05/11 12:50:59;;;;;;;0.40;0.40;;;30.30;53.50;;;;;;5108118;28;20394;-72
2022/05/11 12:53:32;;;;;;;0.70;0.70;;;30.20;53.90;;;;;;5103711;28;20485;-71
2022/05/11 12:56:14;;;;;;;0.40;0.32;;;30.00;54.20;;;;;;5110740;28;20402;-73
2022/05/11 12:59:04;;;;;;;0.40;0.20;;;29.90;55.40;;;;;;5108853;28;20480;-71
2022/05/11 13:01:33;;;;;;;0.40;0.20;;;29.90;54.00;;;;;;5104250;28;20418;-70
2022/05/11 13:04:01;;;;;;;0.40;0.30;;;29.30;54.50;;;;;;5110500;28;20388;-72
2022/05/11 13:06:39;;;;;;;0.40;0.40;;;29.90;54.90;;;;;;5111077;28;20749;-69
2022/05/11 13:09:33;;;;;;;0.50;0.45;;;30.10;55.70;;;;;;5109405;28;20876;-71
2022/05/11 13:12:00;;;;;;;0.40;0.20;;;30.00;55.90;;;;;;5105345;28;20405;-71
2022/05/11 13:14:35;;;;;;;0.40;0.20;;;30.10;57.20;;;;;;5109827;28;20872;-71
2022/05/11 13:17:04;;;;;;;0.40;0.20;;;30.30;56.90;;;;;;5106960;28;20877;-69
2022/05/11 13:19:33;;;;;;;0.70;0.50;;;29.90;55.70;;;;;;5110118;28;20393;-71
2022/05/11 13:22:04;;;;;;;0.40;0.30;;;29.80;55.50;;;;;;5111414;28;20440;-72
2022/05/11 13:24:42;;;;;;;0.40;0.30;;;30.60;54.00;;;;;;5093855;28;20417;-72
2022/05/11 13:27:32;;;;;;;0.40;0.30;;;31.20;51.90;;;;;;5101463;28;20402;-71
2022/05/11 13:30:20;;;;;;;1.90;0.70;;;31.60;52.90;;;;;;5100540;27;20410;-71
2022/05/11 13:32:55;;;;;;;1.00;0.90;;;31.40;51.80;;;;;;5105395;28;20446;-70
2022/05/11 13:35:29;;;;;;;0.60;0.50;;;31.50;52.60;;;;;;5110540;28;20381;-72
2022/05/11 13:38:09;;;;;;;0.50;0.50;;;31.00;50.40;;;;;;5111014;28;20408;-70
2022/05/11 13:40:55;;;;;;;0.40;0.20;;;30.60;52.40;;;;;;5110560;28;20471;-73
2022/05/11 13:43:27;;;;;;;0.40;0.20;;;30.20;52.30;;;;;;5106494;28;20831;-71
2022/05/11 13:46:09;;;;;;;0.50;0.50;;;30.70;52.50;;;;;;5099841;28;21001;-71
2022/05/11 13:48:42;;;;;;;0.50;0.50;;;30.70;51.90;;;;;;5096709;28;20473;-70
2022/05/11 13:51:26;;;;;;;0.50;0.40;;;30.50;52.00;;;;;;5093312;28;20398;-70
2022/05/11 13:54:18;;;;;;;0.60;0.60;;;30.40;53.30;;;;;;5089110;28;20441;-69